createdAt,value
2018-05-02T00:02:54.848Z,67.70
2018-05-02T00:07:46.374Z,68.10
2018-05-02T00:12:37.881Z,68.50
2018-05-02T00:17:29.356Z,68.40
2018-05-02T00:22:21.591Z,68.50
2018-05-02T00:27:13.075Z,68.50
2018-05-02T00:32:04.561Z,69.20
2018-05-02T00:36:56.034Z,69.60
2018-05-02T00:41:47.551Z,70.00
2018-05-02T00:46:39.791Z,71.20
2018-05-02T00:51:32.025Z,72.00
2018-05-02T00:56:23.525Z,71.90
2018-05-02T01:01:15.034Z,72.20
2018-05-02T01:06:06.517Z,72.70
2018-05-02T01:10:58.009Z,72.90
2018-05-02T01:15:49.550Z,73.00
2018-05-02T01:20:41.031Z,73.40
2018-05-02T01:25:32.524Z,73.90
2018-05-02T01:30:24.089Z,74.30
2018-05-02T01:35:15.614Z,74.80
2018-05-02T01:40:07.834Z,75.10
2018-05-02T01:44:59.328Z,75.00
2018-05-02T01:49:50.822Z,75.20
2018-05-02T01:54:42.309Z,75.10
2018-05-02T01:59:34.570Z,75.70
2018-05-02T02:04:26.056Z,75.80
2018-05-02T02:09:17.569Z,76.10
2018-05-02T02:14:09.077Z,75.90
2018-05-02T02:19:00.575Z,76.30
2018-05-02T02:23:53.553Z,75.80
2018-05-02T02:28:45.813Z,75.80
2018-05-02T02:33:38.144Z,75.60
2018-05-02T02:38:31.307Z,75.70
2018-05-02T02:43:22.799Z,75.60
2018-05-02T02:48:14.270Z,75.90
2018-05-02T02:53:05.748Z,75.90
2018-05-02T02:57:57.295Z,75.60
2018-05-02T03:02:48.796Z,75.50
2018-05-02T03:07:40.999Z,75.90
2018-05-02T03:12:32.479Z,75.70
2018-05-02T03:17:24.694Z,75.80
2018-05-02T03:22:16.157Z,75.70
2018-05-02T03:27:08.497Z,75.10
2018-05-02T03:31:59.913Z,74.90
2018-05-02T03:36:51.413Z,75.20
2018-05-02T03:41:42.883Z,75.60
2018-05-02T03:46:34.401Z,75.80
2018-05-02T03:51:25.899Z,76.10
2018-05-02T03:56:17.370Z,76.50
2018-05-02T04:01:27.244Z,76.80
2018-05-02T04:12:06.068Z,77.30
2018-05-02T04:16:57.599Z,77.80
2018-05-02T04:21:49.104Z,78.00
2018-05-02T04:26:41.353Z,77.90
2018-05-02T04:31:32.805Z,77.80
2018-05-02T04:36:25.082Z,77.90
2018-05-02T04:41:16.553Z,77.90
2018-05-02T04:46:08.036Z,77.60
2018-05-02T04:50:59.519Z,77.20
2018-05-02T04:55:50.982Z,76.40
2018-05-02T05:00:43.202Z,74.10
2018-05-02T05:05:34.684Z,73.90
2018-05-02T05:10:26.220Z,73.80
2018-05-02T05:15:17.704Z,72.90
2018-05-02T05:20:09.218Z,72.50
2018-05-02T05:25:00.706Z,72.70
2018-05-02T05:29:52.960Z,72.20
2018-05-02T05:34:45.221Z,69.70
2018-05-02T05:39:36.691Z,69.70
2018-05-02T05:44:28.190Z,65.70
2018-05-02T05:49:19.678Z,61.40
2018-05-02T05:54:11.194Z,57.10
2018-05-02T05:59:02.739Z,52.10
2018-05-02T06:03:54.252Z,50.60
2018-05-02T06:08:45.762Z,49.30
2018-05-02T06:13:37.249Z,46.80
2018-05-02T06:18:28.769Z,45.00
2018-05-02T06:23:20.287Z,42.50
2018-05-02T06:28:11.805Z,40.20
2018-05-02T06:33:03.297Z,37.70
2018-05-02T06:37:55.655Z,37.00
2018-05-02T06:42:47.913Z,36.30
2018-05-02T06:47:40.209Z,36.60
2018-05-02T06:52:31.693Z,36.50
2018-05-02T06:57:23.938Z,33.80
2018-05-02T07:02:16.175Z,33.70
2018-05-02T07:07:07.726Z,33.60
2018-05-02T07:11:59.211Z,31.30
2018-05-02T07:16:50.697Z,32.40
2018-05-02T07:21:42.219Z,33.10
2018-05-02T07:26:34.483Z,32.60
2018-05-02T07:31:26.702Z,30.70
2018-05-02T07:36:18.197Z,30.50
2018-05-02T07:41:09.736Z,33.50
2018-05-02T07:46:01.264Z,34.40
2018-05-02T07:50:52.754Z,32.10
2018-05-02T07:55:45.011Z,31.80
2018-05-02T08:00:38.350Z,32.80
2018-05-02T08:05:29.908Z,32.80
2018-05-02T08:10:21.434Z,36.00
2018-05-02T08:15:12.923Z,38.40
2018-05-02T08:20:04.422Z,37.20
2018-05-02T08:24:56.650Z,37.00
2018-05-02T08:29:48.148Z,36.40
2018-05-02T08:34:40.517Z,35.60
2018-05-02T08:39:32.066Z,34.20
2018-05-02T08:44:23.595Z,31.80
2018-05-02T08:49:15.100Z,32.90
2018-05-02T08:54:06.693Z,30.90
2018-05-02T08:58:58.929Z,30.00
2018-05-02T09:03:50.436Z,30.00
2018-05-02T09:08:41.986Z,31.80
2018-05-02T09:13:33.481Z,28.10
2018-05-02T09:18:25.296Z,28.00
2018-05-02T09:23:17.575Z,26.40
2018-05-02T09:28:09.097Z,26.30
2018-05-02T09:33:00.602Z,26.10
2018-05-02T09:37:52.084Z,26.10
2018-05-02T09:42:43.597Z,26.10
2018-05-02T09:47:35.110Z,26.90
2018-05-02T09:52:27.358Z,26.10
2018-05-02T09:57:19.641Z,27.70
2018-05-02T10:02:11.887Z,26.60
2018-05-02T10:07:04.148Z,26.90
2018-05-02T10:11:55.681Z,26.80
2018-05-02T10:16:47.159Z,29.00
2018-05-02T10:21:38.655Z,28.20
2018-05-02T10:26:30.212Z,28.60
2018-05-02T10:31:21.702Z,28.20
2018-05-02T10:36:13.243Z,28.00
2018-05-02T10:41:04.731Z,28.30
2018-05-02T10:45:56.228Z,28.50
2018-05-02T10:50:47.739Z,29.70
2018-05-02T10:55:41.055Z,29.30
2018-05-02T11:00:32.597Z,28.50
2018-05-02T11:05:24.146Z,28.50
2018-05-02T11:10:15.619Z,28.50
2018-05-02T11:15:07.122Z,27.60
2018-05-02T11:20:02.116Z,28.60
2018-05-02T11:24:53.654Z,28.60
2018-05-02T11:29:45.421Z,29.00
2018-05-02T11:34:43.871Z,30.70
2018-05-02T11:39:36.637Z,30.60
2018-05-02T11:44:30.695Z,30.50
2018-05-02T11:49:23.397Z,29.50
2018-05-02T11:54:17.955Z,30.20
2018-05-02T11:59:13.640Z,29.50
2018-05-02T12:04:07.585Z,29.70
2018-05-02T12:08:59.182Z,29.60
2018-05-02T12:13:50.658Z,29.50
2018-05-02T12:18:42.152Z,29.40
2018-05-02T12:23:34.385Z,30.00
2018-05-02T12:28:26.052Z,29.80
2018-05-02T12:33:18.280Z,29.80
2018-05-02T12:38:09.785Z,29.70
2018-05-02T12:43:01.289Z,29.30
2018-05-02T12:47:52.784Z,29.10
2018-05-02T12:52:44.295Z,29.80
2018-05-02T12:57:35.863Z,29.50
2018-05-02T13:02:28.118Z,29.20
2018-05-02T13:07:20.352Z,30.00
2018-05-02T13:12:11.849Z,29.90
2018-05-02T13:17:03.336Z,29.30
2018-05-02T13:21:55.577Z,29.20
2018-05-02T13:26:47.076Z,29.20
2018-05-02T13:31:38.576Z,29.40
2018-05-02T13:36:30.355Z,29.50
2018-05-02T13:41:21.898Z,29.60
2018-05-02T13:46:13.489Z,29.90
2018-05-02T13:51:04.995Z,29.80
2018-05-02T13:55:57.224Z,31.40
2018-05-02T14:00:48.709Z,31.40
2018-05-02T14:05:40.216Z,31.80
2018-05-02T14:10:32.458Z,31.50
2018-05-02T14:15:24.720Z,31.30
2018-05-02T14:20:16.952Z,30.90
2018-05-02T14:25:09.191Z,31.40
2018-05-02T14:30:00.682Z,30.60
2018-05-02T14:34:52.211Z,30.70
2018-05-02T14:39:43.691Z,31.20
2018-05-02T14:44:35.193Z,31.70
2018-05-02T14:49:26.710Z,32.10
2018-05-02T14:54:18.225Z,30.00
2018-05-02T14:59:11.044Z,28.90
2018-05-02T15:04:02.547Z,28.80
2018-05-02T15:08:54.044Z,28.80
2018-05-02T15:13:46.251Z,29.30
2018-05-02T15:18:37.780Z,29.30
2018-05-02T15:23:29.281Z,29.50
2018-05-02T15:28:20.789Z,29.30
2018-05-02T15:33:12.307Z,29.40
2018-05-02T15:38:03.795Z,29.20
2018-05-02T15:42:55.262Z,29.20
2018-05-02T15:47:46.828Z,29.00
2018-05-02T15:52:39.088Z,29.00
2018-05-02T15:57:31.331Z,29.20
2018-05-02T16:02:23.573Z,29.70
2018-05-02T16:07:15.077Z,29.60
2018-05-02T16:12:06.616Z,29.10
2018-05-02T16:16:58.129Z,29.10
2018-05-02T16:21:49.619Z,28.90
2018-05-02T16:26:41.831Z,29.70
2018-05-02T16:31:33.365Z,29.60
2018-05-02T16:36:24.840Z,29.60
2018-05-02T16:41:17.112Z,30.80
2018-05-02T16:46:08.600Z,30.70
2018-05-02T16:51:00.088Z,30.90
2018-05-02T16:55:51.611Z,32.00
2018-05-02T17:00:43.118Z,31.50
2018-05-02T17:05:35.377Z,32.20
2018-05-02T17:10:27.583Z,32.30
2018-05-02T17:15:19.102Z,32.20
2018-05-02T17:20:10.564Z,32.90
2018-05-02T17:25:02.082Z,32.50
2018-05-02T17:29:53.581Z,32.90
2018-05-02T17:34:45.120Z,32.90
2018-05-02T17:39:36.677Z,33.40
2018-05-02T17:44:28.194Z,33.70
2018-05-02T17:49:19.680Z,33.90
2018-05-02T17:54:11.274Z,34.50
2018-05-02T17:59:02.793Z,34.50
2018-05-02T18:03:54.361Z,35.00
2018-05-02T18:08:45.847Z,35.30
2018-05-02T18:13:37.356Z,36.10
2018-05-02T18:18:29.626Z,35.80
2018-05-02T18:23:21.179Z,35.70
2018-05-02T18:28:12.643Z,36.10
2018-05-02T18:33:04.159Z,36.50
2018-05-02T18:37:55.643Z,36.90
2018-05-02T18:42:47.168Z,37.30
2018-05-02T18:47:38.652Z,37.30
2018-05-02T18:52:30.158Z,38.30
2018-05-02T18:57:22.393Z,38.20
2018-05-02T19:02:14.645Z,38.40
2018-05-02T19:07:06.892Z,39.00
2018-05-02T19:11:58.389Z,38.90
2018-05-02T19:16:49.913Z,39.60
2018-05-02T19:21:41.413Z,40.00
2018-05-02T19:26:35.916Z,40.30
2018-05-02T19:31:34.451Z,41.20
2018-05-02T19:36:25.983Z,41.20
2018-05-02T19:41:23.625Z,41.70
2018-05-02T19:46:15.103Z,42.30
2018-05-02T19:51:12.816Z,42.30
2018-05-02T19:56:05.043Z,42.90
2018-05-02T20:01:02.798Z,42.90
2018-05-02T20:05:54.262Z,43.20
2018-05-02T20:10:51.887Z,43.40
2018-05-02T20:15:43.429Z,43.60
2018-05-02T20:20:34.921Z,43.80
2018-05-02T20:25:26.478Z,44.30
2018-05-02T20:30:17.995Z,44.60
2018-05-02T20:35:10.261Z,45.40
2018-05-02T20:40:01.764Z,45.30
2018-05-02T20:44:53.286Z,45.60
2018-05-02T20:49:44.772Z,45.90
2018-05-02T20:54:36.265Z,46.20
2018-05-02T20:59:29.003Z,46.90
2018-05-02T21:04:20.501Z,46.80
2018-05-02T21:09:12.007Z,47.30
2018-05-02T21:14:04.277Z,48.60
2018-05-02T21:18:56.509Z,48.90
2018-05-02T21:23:48.740Z,50.30
2018-05-02T21:28:41.019Z,51.50
2018-05-02T21:33:33.241Z,51.70
2018-05-02T21:38:24.713Z,51.60
2018-05-02T21:43:16.927Z,52.50
2018-05-02T21:48:08.536Z,52.40
2018-05-02T21:53:00.037Z,53.00
2018-05-02T21:57:51.535Z,53.50
2018-05-02T22:02:43.043Z,54.20
2018-05-02T22:07:34.555Z,54.40
2018-05-02T22:12:26.060Z,54.90
2018-05-02T22:17:18.289Z,55.70
2018-05-02T22:22:09.795Z,55.60
2018-05-02T22:27:01.299Z,56.10
2018-05-02T22:31:52.797Z,56.40
2018-05-02T22:36:45.025Z,57.70
2018-05-02T22:41:36.523Z,57.20
2018-05-02T22:46:28.029Z,57.50
2018-05-02T22:51:20.289Z,58.20
2018-05-02T22:56:11.751Z,58.10
2018-05-02T23:01:03.290Z,58.10
2018-05-02T23:05:54.769Z,58.70
2018-05-02T23:10:47.004Z,59.20
2018-05-02T23:15:39.243Z,59.50
2018-05-02T23:20:30.737Z,59.50
2018-05-02T23:25:22.231Z,60.00
2018-05-02T23:30:14.518Z,61.00
2018-05-02T23:35:06.004Z,60.90
2018-05-02T23:39:57.501Z,61.40
2018-05-02T23:44:48.983Z,61.10
2018-05-02T23:49:40.479Z,61.20
2018-05-02T23:54:31.980Z,61.50
2018-05-02T23:59:23.469Z,61.40
